sensor_id;sensor_type;location;lat;lon;timestamp;temperature;humidity
19252;DHT22;9760;50.944;5.304;2023-03-01T00:01:48;0.40;99.90
19252;DHT22;9760;50.944;5.304;2023-03-01T00:04:14;0.40;99.90
19252;DHT22;9760;50.944;5.304;2023-03-01T00:06:39;0.40;99.90
19252;DHT22;9760;50.944;5.304;2023-03-01T00:09:05;0.40;99.90
19252;DHT22;9760;50.944;5.304;2023-03-01T00:11:33;0.40;99.90
19252;DHT22;9760;50.944;5.304;2023-03-01T00:14:00;0.40;99.90
19252;DHT22;9760;50.944;5.304;2023-03-01T00:16:35;0.30;99.90
19252;DHT22;9760;50.944;5.304;2023-03-01T00:19:02;0.30;99.90
19252;DHT22;9760;50.944;5.304;2023-03-01T00:21:28;0.30;99.90
19252;DHT22;9760;50.944;5.304;2023-03-01T00:23:55;0.30;99.90
19252;DHT22;9760;50.944;5.304;2023-03-01T00:26:22;0.30;99.90
19252;DHT22;9760;50.944;5.304;2023-03-01T00:28:48;0.20;99.90
19252;DHT22;9760;50.944;5.304;2023-03-01T00:31:17;0.20;99.90
19252;DHT22;9760;50.944;5.304;2023-03-01T00:33:43;0.30;99.90
19252;DHT22;9760;50.944;5.304;2023-03-01T00:36:10;0.20;99.90
19252;DHT22;9760;50.944;5.304;2023-03-01T00:38:38;0.20;99.90
19252;DHT22;9760;50.944;5.304;2023-03-01T00:41:06;0.20;99.90
19252;DHT22;9760;50.944;5.304;2023-03-01T00:43:32;0.10;99.90
19252;DHT22;9760;50.944;5.304;2023-03-01T00:46:02;0.10;99.90
19252;DHT22;9760;50.944;5.304;2023-03-01T00:48:28;0.10;99.90
19252;DHT22;9760;50.944;5.304;2023-03-01T00:50:54;0.10;99.90
19252;DHT22;9760;50.944;5.304;2023-03-01T00:53:19;0.00;99.90
19252;DHT22;9760;50.944;5.304;2023-03-01T00:55:45;0.00;99.90
19252;DHT22;9760;50.944;5.304;2023-03-01T00:58:10;0.00;99.90
19252;DHT22;9760;50.944;5.304;2023-03-01T01:00:36;0.00;99.90
19252;DHT22;9760;50.944;5.304;2023-03-01T01:03:02;0.00;99.90
19252;DHT22;9760;50.944;5.304;2023-03-01T01:05:27;0.00;99.90
19252;DHT22;9760;50.944;5.304;2023-03-01T01:07:53;0.00;99.90
19252;DHT22;9760;50.944;5.304;2023-03-01T01:10:18;0.00;99.90
19252;DHT22;9760;50.944;5.304;2023-03-01T01:12:45;-0.10;99.90
19252;DHT22;9760;50.944;5.304;2023-03-01T01:15:11;-0.10;99.90
19252;DHT22;9760;50.944;5.304;2023-03-01T01:17:39;-0.10;99.90
19252;DHT22;9760;50.944;5.304;2023-03-01T01:20:05;-0.20;99.90
19252;DHT22;9760;50.944;5.304;2023-03-01T01:22:31;-0.20;99.90
19252;DHT22;9760;50.944;5.304;2023-03-01T01:24:57;-0.30;99.90
19252;DHT22;9760;50.944;5.304;2023-03-01T01:27:22;-0.30;99.90
19252;DHT22;9760;50.944;5.304;2023-03-01T01:29:48;-0.30;99.90
19252;DHT22;9760;50.944;5.304;2023-03-01T01:32:14;-0.30;99.90
19252;DHT22;9760;50.944;5.304;2023-03-01T01:34:39;-0.30;99.90
19252;DHT22;9760;50.944;5.304;2023-03-01T01:37:05;-0.30;99.90
19252;DHT22;9760;50.944;5.304;2023-03-01T01:39:34;-0.30;99.90
19252;DHT22;9760;50.944;5.304;2023-03-01T01:42:01;-0.30;99.90
19252;DHT22;9760;50.944;5.304;2023-03-01T01:44:28;-0.30;99.90
19252;DHT22;9760;50.944;5.304;2023-03-01T01:47:00;-0.30;99.90
19252;DHT22;9760;50.944;5.304;2023-03-01T01:52:14;-0.40;99.90
19252;DHT22;9760;50.944;5.304;2023-03-01T01:57:22;-0.40;99.90
19252;DHT22;9760;50.944;5.304;2023-03-01T01:59:56;-0.40;99.90
19252;DHT22;9760;50.944;5.304;2023-03-01T02:02:24;-0.40;99.90
19252;DHT22;9760;50.944;5.304;2023-03-01T02:04:55;-0.40;99.90
19252;DHT22;9760;50.944;5.304;2023-03-01T02:07:27;-0.40;99.90
19252;DHT22;9760;50.944;5.304;2023-03-01T02:09:53;-0.40;99.90
19252;DHT22;9760;50.944;5.304;2023-03-01T02:12:21;-0.50;99.90
19252;DHT22;9760;50.944;5.304;2023-03-01T02:14:48;-0.50;99.90
19252;DHT22;9760;50.944;5.304;2023-03-01T02:17:15;-0.60;99.90
19252;DHT22;9760;50.944;5.304;2023-03-01T02:22:34;-0.60;99.90
19252;DHT22;9760;50.944;5.304;2023-03-01T02:28:04;-0.60;99.90
19252;DHT22;9760;50.944;5.304;2023-03-01T02:30:34;-0.70;99.90
19252;DHT22;9760;50.944;5.304;2023-03-01T02:33:00;-0.70;99.90
19252;DHT22;9760;50.944;5.304;2023-03-01T02:35:35;-0.80;99.90
19252;DHT22;9760;50.944;5.304;2023-03-01T02:38:03;-0.80;99.90
19252;DHT22;9760;50.944;5.304;2023-03-01T02:40:34;-0.80;99.90
19252;DHT22;9760;50.944;5.304;2023-03-01T02:42:59;-0.80;99.90
19252;DHT22;9760;50.944;5.304;2023-03-01T02:45:26;-0.80;99.90
19252;DHT22;9760;50.944;5.304;2023-03-01T02:47:57;-0.80;99.90
19252;DHT22;9760;50.944;5.304;2023-03-01T02:50:43;-0.90;99.90
19252;DHT22;9760;50.944;5.304;2023-03-01T02:53:21;-0.90;99.90
19252;DHT22;9760;50.944;5.304;2023-03-01T02:55:48;-0.90;99.90
19252;DHT22;9760;50.944;5.304;2023-03-01T02:58:15;-0.80;99.90
19252;DHT22;9760;50.944;5.304;2023-03-01T03:00:42;-0.70;99.90
19252;DHT22;9760;50.944;5.304;2023-03-01T03:03:19;-0.90;99.90
19252;DHT22;9760;50.944;5.304;2023-03-01T03:05:45;-0.90;99.90
19252;DHT22;9760;50.944;5.304;2023-03-01T03:08:11;-0.90;99.90
19252;DHT22;9760;50.944;5.304;2023-03-01T03:10:39;-0.90;99.90
19252;DHT22;9760;50.944;5.304;2023-03-01T03:13:14;-0.90;99.90
19252;DHT22;9760;50.944;5.304;2023-03-01T03:15:41;-0.90;99.90
19252;DHT22;9760;50.944;5.304;2023-03-01T03:18:10;-0.90;99.90
19252;DHT22;9760;50.944;5.304;2023-03-01T03:20:36;-1.00;99.90
19252;DHT22;9760;50.944;5.304;2023-03-01T03:23:03;-1.00;99.90
19252;DHT22;9760;50.944;5.304;2023-03-01T03:25:29;-1.00;99.90
19252;DHT22;9760;50.944;5.304;2023-03-01T03:27:55;-1.00;99.90
19252;DHT22;9760;50.944;5.304;2023-03-01T03:30:26;-1.00;99.90
19252;DHT22;9760;50.944;5.304;2023-03-01T03:32:52;-1.10;99.90
19252;DHT22;9760;50.944;5.304;2023-03-01T03:37:45;-1.10;99.90
19252;DHT22;9760;50.944;5.304;2023-03-01T03:40:37;-1.10;99.90
19252;DHT22;9760;50.944;5.304;2023-03-01T03:43:09;-1.10;99.90
19252;DHT22;9760;50.944;5.304;2023-03-01T03:45:36;-1.10;99.90
19252;DHT22;9760;50.944;5.304;2023-03-01T03:48:03;-1.10;99.90
19252;DHT22;9760;50.944;5.304;2023-03-01T03:50:29;-1.10;99.90
19252;DHT22;9760;50.944;5.304;2023-03-01T03:52:55;-1.10;99.90
19252;DHT22;9760;50.944;5.304;2023-03-01T03:55:21;-1.10;99.90
19252;DHT22;9760;50.944;5.304;2023-03-01T03:57:47;-1.10;99.90
19252;DHT22;9760;50.944;5.304;2023-03-01T04:00:18;-1.10;99.90
19252;DHT22;9760;50.944;5.304;2023-03-01T04:02:45;-1.10;99.90
19252;DHT22;9760;50.944;5.304;2023-03-01T04:05:13;-1.20;99.90
19252;DHT22;9760;50.944;5.304;2023-03-01T04:07:40;-1.10;99.90
19252;DHT22;9760;50.944;5.304;2023-03-01T04:10:10;-1.10;99.90
19252;DHT22;9760;50.944;5.304;2023-03-01T04:12:36;-1.20;99.90
19252;DHT22;9760;50.944;5.304;2023-03-01T04:15:05;-1.20;99.90
19252;DHT22;9760;50.944;5.304;2023-03-01T04:17:42;-1.20;99.90
19252;DHT22;9760;50.944;5.304;2023-03-01T04:20:13;-1.30;99.90
19252;DHT22;9760;50.944;5.304;2023-03-01T04:22:40;-1.30;99.90
19252;DHT22;9760;50.944;5.304;2023-03-01T04:25:06;-1.30;99.90
19252;DHT22;9760;50.944;5.304;2023-03-01T04:27:33;-1.30;99.90
19252;DHT22;9760;50.944;5.304;2023-03-01T04:29:59;-1.30;99.90
19252;DHT22;9760;50.944;5.304;2023-03-01T04:32:25;-1.30;99.90
19252;DHT22;9760;50.944;5.304;2023-03-01T04:34:51;-1.30;99.90
19252;DHT22;9760;50.944;5.304;2023-03-01T04:37:16;-1.30;99.90
19252;DHT22;9760;50.944;5.304;2023-03-01T04:39:42;-1.30;99.90
19252;DHT22;9760;50.944;5.304;2023-03-01T04:42:14;-1.40;99.90
19252;DHT22;9760;50.944;5.304;2023-03-01T04:44:40;-1.40;99.90
19252;DHT22;9760;50.944;5.304;2023-03-01T04:47:06;-1.40;99.90
19252;DHT22;9760;50.944;5.304;2023-03-01T04:49:31;-1.40;99.90
19252;DHT22;9760;50.944;5.304;2023-03-01T04:51:57;-1.40;99.90
19252;DHT22;9760;50.944;5.304;2023-03-01T04:54:34;-1.40;99.90
19252;DHT22;9760;50.944;5.304;2023-03-01T04:57:01;-1.40;99.90
19252;DHT22;9760;50.944;5.304;2023-03-01T04:59:27;-1.40;99.90
19252;DHT22;9760;50.944;5.304;2023-03-01T05:01:54;-1.50;99.90
19252;DHT22;9760;50.944;5.304;2023-03-01T05:04:26;-1.50;99.90
19252;DHT22;9760;50.944;5.304;2023-03-01T05:06:51;-1.60;99.90
19252;DHT22;9760;50.944;5.304;2023-03-01T05:09:19;-1.60;99.90
19252;DHT22;9760;50.944;5.304;2023-03-01T05:11:44;-1.60;99.90
19252;DHT22;9760;50.944;5.304;2023-03-01T05:14:10;-1.60;99.90
19252;DHT22;9760;50.944;5.304;2023-03-01T05:16:36;-1.60;99.90
19252;DHT22;9760;50.944;5.304;2023-03-01T05:19:03;-1.60;99.90
19252;DHT22;9760;50.944;5.304;2023-03-01T05:21:39;-1.60;99.90
19252;DHT22;9760;50.944;5.304;2023-03-01T05:24:25;-1.70;99.90
19252;DHT22;9760;50.944;5.304;2023-03-01T05:26:51;-1.60;99.90
19252;DHT22;9760;50.944;5.304;2023-03-01T05:29:20;-1.70;99.90
19252;DHT22;9760;50.944;5.304;2023-03-01T05:31:58;-1.70;99.90
19252;DHT22;9760;50.944;5.304;2023-03-01T05:34:25;-1.70;99.90
19252;DHT22;9760;50.944;5.304;2023-03-01T05:36:52;-1.60;99.90
19252;DHT22;9760;50.944;5.304;2023-03-01T05:39:19;-1.70;99.90
19252;DHT22;9760;50.944;5.304;2023-03-01T05:41:46;-1.70;99.90
19252;DHT22;9760;50.944;5.304;2023-03-01T05:44:12;-1.70;99.90
19252;DHT22;9760;50.944;5.304;2023-03-01T05:46:37;-1.70;99.90
19252;DHT22;9760;50.944;5.304;2023-03-01T05:49:03;-1.80;99.90
19252;DHT22;9760;50.944;5.304;2023-03-01T05:51:29;-1.80;99.90
19252;DHT22;9760;50.944;5.304;2023-03-01T05:53:55;-1.80;99.90
19252;DHT22;9760;50.944;5.304;2023-03-01T05:56:20;-1.80;99.90
19252;DHT22;9760;50.944;5.304;2023-03-01T05:58:48;-1.90;99.90
19252;DHT22;9760;50.944;5.304;2023-03-01T06:01:14;-1.90;99.90
19252;DHT22;9760;50.944;5.304;2023-03-01T06:03:40;-1.90;99.90
19252;DHT22;9760;50.944;5.304;2023-03-01T06:06:06;-1.80;99.90
19252;DHT22;9760;50.944;5.304;2023-03-01T06:08:31;-1.80;99.90
19252;DHT22;9760;50.944;5.304;2023-03-01T06:10:57;-1.80;99.90
19252;DHT22;9760;50.944;5.304;2023-03-01T06:13:23;-1.90;99.90
19252;DHT22;9760;50.944;5.304;2023-03-01T06:15:49;-1.90;99.90
19252;DHT22;9760;50.944;5.304;2023-03-01T06:18:15;-1.90;99.90
19252;DHT22;9760;50.944;5.304;2023-03-01T06:20:41;-1.90;99.90
19252;DHT22;9760;50.944;5.304;2023-03-01T06:23:06;-1.90;99.90
19252;DHT22;9760;50.944;5.304;2023-03-01T06:25:32;-1.90;99.90
19252;DHT22;9760;50.944;5.304;2023-03-01T06:27:58;-1.90;99.90
19252;DHT22;9760;50.944;5.304;2023-03-01T06:30:25;-1.90;99.90
19252;DHT22;9760;50.944;5.304;2023-03-01T06:32:51;-2.00;99.90
19252;DHT22;9760;50.944;5.304;2023-03-01T06:35:18;-2.00;99.90
19252;DHT22;9760;50.944;5.304;2023-03-01T06:37:44;-2.00;99.90
19252;DHT22;9760;50.944;5.304;2023-03-01T06:40:10;-2.00;99.90
19252;DHT22;9760;50.944;5.304;2023-03-01T06:42:38;-2.00;99.90
19252;DHT22;9760;50.944;5.304;2023-03-01T06:45:05;-2.00;99.90
19252;DHT22;9760;50.944;5.304;2023-03-01T06:47:31;-2.00;99.90
19252;DHT22;9760;50.944;5.304;2023-03-01T06:49:58;-2.10;99.90
19252;DHT22;9760;50.944;5.304;2023-03-01T06:52:24;-2.10;99.90
19252;DHT22;9760;50.944;5.304;2023-03-01T06:54:50;-2.10;99.90
19252;DHT22;9760;50.944;5.304;2023-03-01T06:57:15;-2.00;99.90
19252;DHT22;9760;50.944;5.304;2023-03-01T06:59:41;-2.00;99.90
19252;DHT22;9760;50.944;5.304;2023-03-01T07:02:12;-1.80;99.90
19252;DHT22;9760;50.944;5.304;2023-03-01T07:04:38;-1.90;99.90
19252;DHT22;9760;50.944;5.304;2023-03-01T07:07:04;-1.90;99.90
19252;DHT22;9760;50.944;5.304;2023-03-01T07:09:30;-1.90;99.90
19252;DHT22;9760;50.944;5.304;2023-03-01T07:11:56;-1.80;99.90
19252;DHT22;9760;50.944;5.304;2023-03-01T07:14:22;-1.70;99.90
19252;DHT22;9760;50.944;5.304;2023-03-01T07:16:50;-1.70;99.90
19252;DHT22;9760;50.944;5.304;2023-03-01T07:19:15;-1.70;99.90
19252;DHT22;9760;50.944;5.304;2023-03-01T07:21:41;-1.60;99.90
19252;DHT22;9760;50.944;5.304;2023-03-01T07:24:07;-1.50;99.90
19252;DHT22;9760;50.944;5.304;2023-03-01T07:26:33;-1.50;99.90
19252;DHT22;9760;50.944;5.304;2023-03-01T07:29:00;-1.40;99.90
19252;DHT22;9760;50.944;5.304;2023-03-01T07:31:25;-1.30;99.90
19252;DHT22;9760;50.944;5.304;2023-03-01T07:33:54;-1.30;99.90
19252;DHT22;9760;50.944;5.304;2023-03-01T07:36:20;-1.20;99.90
19252;DHT22;9760;50.944;5.304;2023-03-01T07:38:46;-1.10;99.90
19252;DHT22;9760;50.944;5.304;2023-03-01T07:41:11;-1.10;99.90
19252;DHT22;9760;50.944;5.304;2023-03-01T07:43:37;-1.00;99.90
19252;DHT22;9760;50.944;5.304;2023-03-01T07:46:03;-1.00;99.90
19252;DHT22;9760;50.944;5.304;2023-03-01T07:48:30;-0.90;99.90
19252;DHT22;9760;50.944;5.304;2023-03-01T07:51:04;-0.90;99.90
19252;DHT22;9760;50.944;5.304;2023-03-01T07:53:30;-0.80;99.90
19252;DHT22;9760;50.944;5.304;2023-03-01T07:56:05;-0.70;99.90
19252;DHT22;9760;50.944;5.304;2023-03-01T07:58:34;-0.70;99.90
19252;DHT22;9760;50.944;5.304;2023-03-01T08:01:04;-0.60;99.90
19252;DHT22;9760;50.944;5.304;2023-03-01T08:03:29;-0.50;99.90
19252;DHT22;9760;50.944;5.304;2023-03-01T08:05:55;-0.40;99.90
19252;DHT22;9760;50.944;5.304;2023-03-01T08:08:21;-0.30;99.90
19252;DHT22;9760;50.944;5.304;2023-03-01T08:10:47;-0.20;99.90
19252;DHT22;9760;50.944;5.304;2023-03-01T08:13:12;-0.10;99.90
19252;DHT22;9760;50.944;5.304;2023-03-01T08:15:38;0.00;99.90
19252;DHT22;9760;50.944;5.304;2023-03-01T08:18:03;0.00;99.90
19252;DHT22;9760;50.944;5.304;2023-03-01T08:20:29;0.10;99.90
19252;DHT22;9760;50.944;5.304;2023-03-01T08:22:54;0.20;99.90
19252;DHT22;9760;50.944;5.304;2023-03-01T08:25:20;0.20;99.90
19252;DHT22;9760;50.944;5.304;2023-03-01T08:27:46;0.20;99.90
19252;DHT22;9760;50.944;5.304;2023-03-01T08:30:12;0.30;99.90
19252;DHT22;9760;50.944;5.304;2023-03-01T08:32:38;0.40;99.90
19252;DHT22;9760;50.944;5.304;2023-03-01T08:35:05;0.50;99.90
19252;DHT22;9760;50.944;5.304;2023-03-01T08:37:30;0.60;99.90
19252;DHT22;9760;50.944;5.304;2023-03-01T08:39:58;0.70;99.90
19252;DHT22;9760;50.944;5.304;2023-03-01T08:42:24;0.60;99.90
19252;DHT22;9760;50.944;5.304;2023-03-01T08:44:50;0.80;99.90
19252;DHT22;9760;50.944;5.304;2023-03-01T08:47:15;0.90;99.90
19252;DHT22;9760;50.944;5.304;2023-03-01T08:49:42;1.00;99.90
19252;DHT22;9760;50.944;5.304;2023-03-01T08:52:07;1.10;99.90
19252;DHT22;9760;50.944;5.304;2023-03-01T08:54:33;1.20;99.90
19252;DHT22;9760;50.944;5.304;2023-03-01T08:57:01;1.10;99.90
19252;DHT22;9760;50.944;5.304;2023-03-01T08:59:27;1.10;99.90
19252;DHT22;9760;50.944;5.304;2023-03-01T09:01:55;1.30;99.90
19252;DHT22;9760;50.944;5.304;2023-03-01T09:04:20;1.50;99.90
19252;DHT22;9760;50.944;5.304;2023-03-01T09:06:46;1.60;99.90
19252;DHT22;9760;50.944;5.304;2023-03-01T09:09:15;1.70;99.90
19252;DHT22;9760;50.944;5.304;2023-03-01T09:11:42;1.80;99.90
19252;DHT22;9760;50.944;5.304;2023-03-01T09:14:08;1.90;99.90
19252;DHT22;9760;50.944;5.304;2023-03-01T09:16:34;1.90;99.90
19252;DHT22;9760;50.944;5.304;2023-03-01T09:19:02;1.90;99.90
19252;DHT22;9760;50.944;5.304;2023-03-01T09:21:28;2.10;99.90
19252;DHT22;9760;50.944;5.304;2023-03-01T09:23:56;2.30;99.90
19252;DHT22;9760;50.944;5.304;2023-03-01T09:26:23;2.30;99.90
19252;DHT22;9760;50.944;5.304;2023-03-01T09:28:50;2.40;99.90
19252;DHT22;9760;50.944;5.304;2023-03-01T09:31:17;2.60;99.90
19252;DHT22;9760;50.944;5.304;2023-03-01T09:33:46;2.60;99.90
19252;DHT22;9760;50.944;5.304;2023-03-01T09:36:18;2.70;99.90
19252;DHT22;9760;50.944;5.304;2023-03-01T09:38:45;2.90;99.90
19252;DHT22;9760;50.944;5.304;2023-03-01T09:41:18;3.00;99.90
19252;DHT22;9760;50.944;5.304;2023-03-01T09:43:52;3.20;99.90
19252;DHT22;9760;50.944;5.304;2023-03-01T09:46:21;3.20;99.90
19252;DHT22;9760;50.944;5.304;2023-03-01T09:51:32;3.50;99.90
19252;DHT22;9760;50.944;5.304;2023-03-01T09:53:58;3.50;99.90
19252;DHT22;9760;50.944;5.304;2023-03-01T09:56:52;3.50;99.90
19252;DHT22;9760;50.944;5.304;2023-03-01T10:04:54;3.80;99.90
19252;DHT22;9760;50.944;5.304;2023-03-01T10:07:32;3.90;99.90
19252;DHT22;9760;50.944;5.304;2023-03-01T10:10:05;3.80;99.90
19252;DHT22;9760;50.944;5.304;2023-03-01T10:12:39;4.00;99.90
19252;DHT22;9760;50.944;5.304;2023-03-01T10:15:14;4.00;99.90
19252;DHT22;9760;50.944;5.304;2023-03-01T10:17:45;4.30;99.90
19252;DHT22;9760;50.944;5.304;2023-03-01T10:20:24;4.50;99.90
19252;DHT22;9760;50.944;5.304;2023-03-01T10:22:51;4.70;99.90
19252;DHT22;9760;50.944;5.304;2023-03-01T10:28:17;5.40;99.90
19252;DHT22;9760;50.944;5.304;2023-03-01T10:30:45;5.80;99.90
19252;DHT22;9760;50.944;5.304;2023-03-01T10:33:24;6.50;99.90
19252;DHT22;9760;50.944;5.304;2023-03-01T10:35:51;7.00;99.90
19252;DHT22;9760;50.944;5.304;2023-03-01T10:38:18;7.40;99.90
19252;DHT22;9760;50.944;5.304;2023-03-01T10:43:30;6.90;99.90
19252;DHT22;9760;50.944;5.304;2023-03-01T10:45:57;7.00;99.90
19252;DHT22;9760;50.944;5.304;2023-03-01T10:48:24;7.20;99.90
19252;DHT22;9760;50.944;5.304;2023-03-01T10:56:11;7.20;99.90
19252;DHT22;9760;50.944;5.304;2023-03-01T10:58:40;7.40;99.90
19252;DHT22;9760;50.944;5.304;2023-03-01T11:01:25;8.20;99.90
19252;DHT22;9760;50.944;5.304;2023-03-01T11:04:10;9.00;99.90
19252;DHT22;9760;50.944;5.304;2023-03-01T11:06:39;9.40;99.90
19252;DHT22;9760;50.944;5.304;2023-03-01T11:09:15;9.70;99.90
19252;DHT22;9760;50.944;5.304;2023-03-01T11:11:41;10.10;99.90
19252;DHT22;9760;50.944;5.304;2023-03-01T11:16:41;9.80;99.90
19252;DHT22;9760;50.944;5.304;2023-03-01T11:24:12;9.40;99.90
19252;DHT22;9760;50.944;5.304;2023-03-01T11:26:57;8.80;99.90
19252;DHT22;9760;50.944;5.304;2023-03-01T11:29:40;7.80;99.90
19252;DHT22;9760;50.944;5.304;2023-03-01T11:32:08;7.20;99.90
19252;DHT22;9760;50.944;5.304;2023-03-01T11:34:57;6.80;99.90
19252;DHT22;9760;50.944;5.304;2023-03-01T11:37:44;6.20;99.90
19252;DHT22;9760;50.944;5.304;2023-03-01T11:40:23;6.00;99.90
19252;DHT22;9760;50.944;5.304;2023-03-01T11:45:33;5.90;99.90
19252;DHT22;9760;50.944;5.304;2023-03-01T11:50:48;5.60;99.90
19252;DHT22;9760;50.944;5.304;2023-03-01T11:53:52;5.70;99.90
19252;DHT22;9760;50.944;5.304;2023-03-01T11:56:32;5.80;99.90
19252;DHT22;9760;50.944;5.304;2023-03-01T12:05:05;5.90;99.90
19252;DHT22;9760;50.944;5.304;2023-03-01T12:07:51;5.80;99.90
19252;DHT22;9760;50.944;5.304;2023-03-01T12:10:31;5.80;99.90
19252;DHT22;9760;50.944;5.304;2023-03-01T12:16:24;5.80;99.90
19252;DHT22;9760;50.944;5.304;2023-03-01T12:19:12;5.80;99.90
19252;DHT22;9760;50.944;5.304;2023-03-01T12:29:42;5.90;99.90
19252;DHT22;9760;50.944;5.304;2023-03-01T12:35:20;6.00;99.90
19252;DHT22;9760;50.944;5.304;2023-03-01T12:38:06;6.00;99.90
19252;DHT22;9760;50.944;5.304;2023-03-01T12:40:59;6.10;99.90
19252;DHT22;9760;50.944;5.304;2023-03-01T12:46:52;6.10;99.90
19252;DHT22;9760;50.944;5.304;2023-03-01T12:49:21;6.20;99.90
19252;DHT22;9760;50.944;5.304;2023-03-01T12:51:58;6.00;99.90
19252;DHT22;9760;50.944;5.304;2023-03-01T12:54:30;6.10;99.90
19252;DHT22;9760;50.944;5.304;2023-03-01T12:57:02;6.00;99.90
19252;DHT22;9760;50.944;5.304;2023-03-01T12:59:42;5.90;99.90
19252;DHT22;9760;50.944;5.304;2023-03-01T13:02:20;6.10;99.90
19252;DHT22;9760;50.944;5.304;2023-03-01T13:07:35;6.00;99.90
19252;DHT22;9760;50.944;5.304;2023-03-01T13:20:20;6.00;99.90
19252;DHT22;9760;50.944;5.304;2023-03-01T13:22:47;6.10;99.90
19252;DHT22;9760;50.944;5.304;2023-03-01T13:25:15;6.20;99.90
19252;DHT22;9760;50.944;5.304;2023-03-01T13:27:42;6.20;99.90
19252;DHT22;9760;50.944;5.304;2023-03-01T13:35:48;6.20;99.90
19252;DHT22;9760;50.944;5.304;2023-03-01T13:41:13;6.30;99.90
19252;DHT22;9760;50.944;5.304;2023-03-01T13:43:41;6.30;99.90
19252;DHT22;9760;50.944;5.304;2023-03-01T13:46:20;6.30;99.90
19252;DHT22;9760;50.944;5.304;2023-03-01T13:48:53;6.30;99.90
19252;DHT22;9760;50.944;5.304;2023-03-01T13:51:24;6.40;99.90
19252;DHT22;9760;50.944;5.304;2023-03-01T13:53:51;6.40;99.90
19252;DHT22;9760;50.944;5.304;2023-03-01T13:56:33;6.40;99.90
19252;DHT22;9760;50.944;5.304;2023-03-01T13:59:15;6.40;99.90
19252;DHT22;9760;50.944;5.304;2023-03-01T14:01:41;6.40;99.90
19252;DHT22;9760;50.944;5.304;2023-03-01T14:04:25;6.50;99.90
19252;DHT22;9760;50.944;5.304;2023-03-01T14:07:11;6.50;99.90
19252;DHT22;9760;50.944;5.304;2023-03-01T14:09:43;6.50;99.90
19252;DHT22;9760;50.944;5.304;2023-03-01T14:19:59;6.50;99.90
19252;DHT22;9760;50.944;5.304;2023-03-01T14:22:27;6.40;99.90
19252;DHT22;9760;50.944;5.304;2023-03-01T14:25:33;6.50;99.90
19252;DHT22;9760;50.944;5.304;2023-03-01T14:28:28;6.50;99.90
19252;DHT22;9760;50.944;5.304;2023-03-01T14:30:57;6.70;99.90
19252;DHT22;9760;50.944;5.304;2023-03-01T14:38:22;6.50;99.90
19252;DHT22;9760;50.944;5.304;2023-03-01T14:40:58;6.60;99.90
19252;DHT22;9760;50.944;5.304;2023-03-01T14:43:24;6.60;99.90
19252;DHT22;9760;50.944;5.304;2023-03-01T14:45:53;6.70;99.90
19252;DHT22;9760;50.944;5.304;2023-03-01T14:48:19;6.80;99.90
19252;DHT22;9760;50.944;5.304;2023-03-01T14:50:45;6.70;99.90
19252;DHT22;9760;50.944;5.304;2023-03-01T14:53:26;6.70;99.90
19252;DHT22;9760;50.944;5.304;2023-03-01T14:56:00;6.70;99.90
19252;DHT22;9760;50.944;5.304;2023-03-01T14:58:32;6.60;99.90
19252;DHT22;9760;50.944;5.304;2023-03-01T15:01:03;6.60;99.90
19252;DHT22;9760;50.944;5.304;2023-03-01T15:03:49;6.50;99.90
19252;DHT22;9760;50.944;5.304;2023-03-01T15:06:18;6.50;99.90
19252;DHT22;9760;50.944;5.304;2023-03-01T15:08:48;6.50;99.90
19252;DHT22;9760;50.944;5.304;2023-03-01T15:11:28;6.50;99.90
19252;DHT22;9760;50.944;5.304;2023-03-01T15:13:54;6.50;99.90
19252;DHT22;9760;50.944;5.304;2023-03-01T15:16:26;6.50;99.90
19252;DHT22;9760;50.944;5.304;2023-03-01T15:19:00;6.60;99.90
19252;DHT22;9760;50.944;5.304;2023-03-01T15:21:35;6.60;99.90
19252;DHT22;9760;50.944;5.304;2023-03-01T15:26:51;6.60;99.90
19252;DHT22;9760;50.944;5.304;2023-03-01T15:29:22;6.70;99.90
19252;DHT22;9760;50.944;5.304;2023-03-01T15:32:33;6.70;99.90
19252;DHT22;9760;50.944;5.304;2023-03-01T15:35:31;6.60;99.90
19252;DHT22;9760;50.944;5.304;2023-03-01T15:37:49;6.50;99.90
19252;DHT22;9760;50.944;5.304;2023-03-01T15:42:50;6.50;99.90
19252;DHT22;9760;50.944;5.304;2023-03-01T15:47:47;6.50;99.90
19252;DHT22;9760;50.944;5.304;2023-03-01T15:50:21;6.50;99.90
19252;DHT22;9760;50.944;5.304;2023-03-01T15:52:48;6.50;99.90
19252;DHT22;9760;50.944;5.304;2023-03-01T15:55:18;6.50;99.90
19252;DHT22;9760;50.944;5.304;2023-03-01T15:57:45;6.50;99.90
19252;DHT22;9760;50.944;5.304;2023-03-01T16:00:12;6.40;99.90
19252;DHT22;9760;50.944;5.304;2023-03-01T16:02:39;6.40;99.90
19252;DHT22;9760;50.944;5.304;2023-03-01T16:05:11;6.40;99.90
19252;DHT22;9760;50.944;5.304;2023-03-01T16:07:40;6.40;99.90
19252;DHT22;9760;50.944;5.304;2023-03-01T16:10:06;6.40;99.90
19252;DHT22;9760;50.944;5.304;2023-03-01T16:12:31;6.40;99.90
19252;DHT22;9760;50.944;5.304;2023-03-01T16:14:57;6.40;99.90
19252;DHT22;9760;50.944;5.304;2023-03-01T16:17:23;6.40;99.90
19252;DHT22;9760;50.944;5.304;2023-03-01T16:19:48;6.30;99.90
19252;DHT22;9760;50.944;5.304;2023-03-01T16:22:14;6.30;99.90
19252;DHT22;9760;50.944;5.304;2023-03-01T16:24:39;6.30;99.90
19252;DHT22;9760;50.944;5.304;2023-03-01T16:27:06;6.30;99.90
19252;DHT22;9760;50.944;5.304;2023-03-01T16:29:32;6.20;99.90
19252;DHT22;9760;50.944;5.304;2023-03-01T16:32:00;6.20;99.90
19252;DHT22;9760;50.944;5.304;2023-03-01T16:34:26;6.20;99.90
19252;DHT22;9760;50.944;5.304;2023-03-01T16:36:52;6.20;99.90
19252;DHT22;9760;50.944;5.304;2023-03-01T16:39:17;6.20;99.90
19252;DHT22;9760;50.944;5.304;2023-03-01T16:41:43;6.20;99.90
19252;DHT22;9760;50.944;5.304;2023-03-01T16:44:08;6.20;99.90
19252;DHT22;9760;50.944;5.304;2023-03-01T16:46:34;6.20;99.90
19252;DHT22;9760;50.944;5.304;2023-03-01T16:49:00;6.20;99.90
19252;DHT22;9760;50.944;5.304;2023-03-01T16:51:25;6.30;99.90
19252;DHT22;9760;50.944;5.304;2023-03-01T16:53:52;6.50;99.90
19252;DHT22;9760;50.944;5.304;2023-03-01T16:56:18;6.80;99.90
19252;DHT22;9760;50.944;5.304;2023-03-01T16:58:44;6.80;99.90
19252;DHT22;9760;50.944;5.304;2023-03-01T17:01:10;6.70;99.90
19252;DHT22;9760;50.944;5.304;2023-03-01T17:03:37;6.50;99.90
19252;DHT22;9760;50.944;5.304;2023-03-01T17:06:05;6.20;99.90
19252;DHT22;9760;50.944;5.304;2023-03-01T17:08:32;6.00;99.90
19252;DHT22;9760;50.944;5.304;2023-03-01T17:11:06;5.90;99.90
19252;DHT22;9760;50.944;5.304;2023-03-01T17:13:33;5.70;99.90
19252;DHT22;9760;50.944;5.304;2023-03-01T17:15:59;5.60;99.90
19252;DHT22;9760;50.944;5.304;2023-03-01T17:18:25;5.50;99.90
19252;DHT22;9760;50.944;5.304;2023-03-01T17:20:50;5.50;99.90
19252;DHT22;9760;50.944;5.304;2023-03-01T17:23:16;5.40;99.90
19252;DHT22;9760;50.944;5.304;2023-03-01T17:25:45;5.30;99.90
19252;DHT22;9760;50.944;5.304;2023-03-01T17:28:14;5.20;99.90
19252;DHT22;9760;50.944;5.304;2023-03-01T17:30:43;5.20;99.90
19252;DHT22;9760;50.944;5.304;2023-03-01T17:33:10;5.10;99.90
19252;DHT22;9760;50.944;5.304;2023-03-01T17:35:36;5.00;99.90
19252;DHT22;9760;50.944;5.304;2023-03-01T17:38:06;5.00;99.90
19252;DHT22;9760;50.944;5.304;2023-03-01T17:40:32;4.90;99.90
19252;DHT22;9760;50.944;5.304;2023-03-01T17:42:58;4.80;99.90
19252;DHT22;9760;50.944;5.304;2023-03-01T17:45:24;4.80;99.90
19252;DHT22;9760;50.944;5.304;2023-03-01T17:47:50;4.80;99.90
19252;DHT22;9760;50.944;5.304;2023-03-01T17:50:15;4.70;99.90
19252;DHT22;9760;50.944;5.304;2023-03-01T17:52:41;4.70;99.90
19252;DHT22;9760;50.944;5.304;2023-03-01T17:55:08;4.60;99.90
19252;DHT22;9760;50.944;5.304;2023-03-01T17:57:34;4.60;99.90
19252;DHT22;9760;50.944;5.304;2023-03-01T17:59:59;4.60;99.90